sensor_id;sensor_type;location;lat;lon;timestamp;P1;durP1;ratioP1;P2;durP2;ratioP2
7527;SDS011;3805;49.006;8.514;2023-05-10T00:01:51;1.87;;;1.77;;
7527;SDS011;3805;49.006;8.514;2023-05-10T00:04:39;1.60;;;1.50;;
7527;SDS011;3805;49.006;8.514;2023-05-10T00:07:29;4.60;;;1.53;;
7527;SDS011;3805;49.006;8.514;2023-05-10T00:10:18;2.90;;;1.50;;
7527;SDS011;3805;49.006;8.514;2023-05-10T00:13:06;2.13;;;1.50;;
7527;SDS011;3805;49.006;8.514;2023-05-10T00:15:55;1.33;;;1.23;;
7527;SDS011;3805;49.006;8.514;2023-05-10T00:18:43;1.93;;;1.73;;
7527;SDS011;3805;49.006;8.514;2023-05-10T00:21:32;2.23;;;2.03;;
7527;SDS011;3805;49.006;8.514;2023-05-10T00:24:22;1.93;;;1.83;;
7527;SDS011;3805;49.006;8.514;2023-05-10T00:27:11;1.80;;;1.70;;
7527;SDS011;3805;49.006;8.514;2023-05-10T00:29:59;1.83;;;1.73;;
7527;SDS011;3805;49.006;8.514;2023-05-10T00:32:48;2.53;;;1.40;;
7527;SDS011;3805;49.006;8.514;2023-05-10T00:35:37;1.90;;;1.70;;
7527;SDS011;3805;49.006;8.514;2023-05-10T00:38:25;2.13;;;1.90;;
7527;SDS011;3805;49.006;8.514;2023-05-10T00:41:15;2.17;;;1.70;;
7527;SDS011;3805;49.006;8.514;2023-05-10T00:44:03;2.50;;;1.90;;
7527;SDS011;3805;49.006;8.514;2023-05-10T00:46:52;3.00;;;1.50;;
7527;SDS011;3805;49.006;8.514;2023-05-10T00:49:41;2.27;;;1.60;;
7527;SDS011;3805;49.006;8.514;2023-05-10T00:52:30;2.60;;;1.53;;
7527;SDS011;3805;49.006;8.514;2023-05-10T00:55:18;2.00;;;1.90;;
7527;SDS011;3805;49.006;8.514;2023-05-10T00:58:09;2.30;;;2.10;;
7527;SDS011;3805;49.006;8.514;2023-05-10T01:00:57;3.10;;;1.70;;
7527;SDS011;3805;49.006;8.514;2023-05-10T01:03:46;2.43;;;1.97;;
7527;SDS011;3805;49.006;8.514;2023-05-10T01:06:35;1.80;;;1.70;;
7527;SDS011;3805;49.006;8.514;2023-05-10T01:09:23;2.50;;;1.80;;
7527;SDS011;3805;49.006;8.514;2023-05-10T01:12:13;2.20;;;2.10;;
7527;SDS011;3805;49.006;8.514;2023-05-10T01:15:04;1.93;;;1.83;;
7527;SDS011;3805;49.006;8.514;2023-05-10T01:17:54;3.47;;;1.80;;
7527;SDS011;3805;49.006;8.514;2023-05-10T01:20:44;2.10;;;2.00;;
7527;SDS011;3805;49.006;8.514;2023-05-10T01:23:39;2.67;;;2.20;;
7527;SDS011;3805;49.006;8.514;2023-05-10T01:26:39;2.40;;;2.20;;
7527;SDS011;3805;49.006;8.514;2023-05-10T01:29:44;1.97;;;1.87;;
7527;SDS011;3805;49.006;8.514;2023-05-10T01:33:01;2.70;;;2.50;;
7527;SDS011;3805;49.006;8.514;2023-05-10T01:35:58;2.73;;;2.53;;
7527;SDS011;3805;49.006;8.514;2023-05-10T01:38:55;2.87;;;2.67;;
7527;SDS011;3805;49.006;8.514;2023-05-10T01:41:48;2.30;;;2.20;;
7527;SDS011;3805;49.006;8.514;2023-05-10T01:44:39;3.10;;;2.90;;
7527;SDS011;3805;49.006;8.514;2023-05-10T01:47:31;2.50;;;2.30;;
7527;SDS011;3805;49.006;8.514;2023-05-10T01:50:26;2.70;;;2.50;;
7527;SDS011;3805;49.006;8.514;2023-05-10T01:53:18;3.20;;;2.90;;
7527;SDS011;3805;49.006;8.514;2023-05-10T01:56:08;2.70;;;2.50;;
7527;SDS011;3805;49.006;8.514;2023-05-10T01:58:57;2.90;;;2.70;;
7527;SDS011;3805;49.006;8.514;2023-05-10T02:01:47;3.07;;;2.87;;
7527;SDS011;3805;49.006;8.514;2023-05-10T02:04:35;3.40;;;3.10;;
7527;SDS011;3805;49.006;8.514;2023-05-10T02:07:27;3.07;;;2.87;;
7527;SDS011;3805;49.006;8.514;2023-05-10T02:10:16;3.00;;;2.70;;
7527;SDS011;3805;49.006;8.514;2023-05-10T02:13:06;3.37;;;3.07;;
7527;SDS011;3805;49.006;8.514;2023-05-10T02:15:55;3.03;;;2.83;;
7527;SDS011;3805;49.006;8.514;2023-05-10T02:18:44;3.30;;;3.03;;
7527;SDS011;3805;49.006;8.514;2023-05-10T02:21:34;3.50;;;3.20;;
7527;SDS011;3805;49.006;8.514;2023-05-10T02:24:25;3.10;;;2.90;;
7527;SDS011;3805;49.006;8.514;2023-05-10T02:27:14;3.70;;;3.40;;
7527;SDS011;3805;49.006;8.514;2023-05-10T02:30:04;3.37;;;3.17;;
7527;SDS011;3805;49.006;8.514;2023-05-10T02:32:54;4.03;;;3.73;;
7527;SDS011;3805;49.006;8.514;2023-05-10T02:35:44;4.00;;;3.70;;
7527;SDS011;3805;49.006;8.514;2023-05-10T02:38:33;3.00;;;2.80;;
7527;SDS011;3805;49.006;8.514;2023-05-10T02:41:24;4.93;;;3.60;;
7527;SDS011;3805;49.006;8.514;2023-05-10T02:44:14;4.37;;;4.07;;
7527;SDS011;3805;49.006;8.514;2023-05-10T02:47:03;3.80;;;3.50;;
7527;SDS011;3805;49.006;8.514;2023-05-10T02:49:52;4.67;;;3.63;;
7527;SDS011;3805;49.006;8.514;2023-05-10T02:52:46;11.53;;;4.10;;
7527;SDS011;3805;49.006;8.514;2023-05-10T02:55:39;4.10;;;3.83;;
7527;SDS011;3805;49.006;8.514;2023-05-10T02:58:36;4.40;;;4.10;;
7527;SDS011;3805;49.006;8.514;2023-05-10T03:01:25;4.13;;;3.73;;
7527;SDS011;3805;49.006;8.514;2023-05-10T03:04:13;3.90;;;3.60;;
7527;SDS011;3805;49.006;8.514;2023-05-10T03:07:02;4.20;;;3.90;;
7527;SDS011;3805;49.006;8.514;2023-05-10T03:09:51;3.73;;;3.53;;
7527;SDS011;3805;49.006;8.514;2023-05-10T03:12:43;3.93;;;3.73;;
7527;SDS011;3805;49.006;8.514;2023-05-10T03:15:42;3.80;;;3.50;;
7527;SDS011;3805;49.006;8.514;2023-05-10T03:18:37;4.30;;;3.90;;
7527;SDS011;3805;49.006;8.514;2023-05-10T03:21:31;4.27;;;3.97;;
7527;SDS011;3805;49.006;8.514;2023-05-10T03:24:20;4.27;;;3.97;;
7527;SDS011;3805;49.006;8.514;2023-05-10T03:27:10;8.20;;;4.00;;
7527;SDS011;3805;49.006;8.514;2023-05-10T03:29:59;5.10;;;4.70;;
7527;SDS011;3805;49.006;8.514;2023-05-10T03:32:49;4.50;;;4.20;;
7527;SDS011;3805;49.006;8.514;2023-05-10T03:35:38;4.30;;;4.00;;
7527;SDS011;3805;49.006;8.514;2023-05-10T03:38:26;4.43;;;4.03;;
7527;SDS011;3805;49.006;8.514;2023-05-10T03:41:16;4.23;;;3.93;;
7527;SDS011;3805;49.006;8.514;2023-05-10T03:44:05;4.80;;;4.40;;
7527;SDS011;3805;49.006;8.514;2023-05-10T03:46:53;4.20;;;3.90;;
7527;SDS011;3805;49.006;8.514;2023-05-10T03:49:43;4.50;;;4.20;;
7527;SDS011;3805;49.006;8.514;2023-05-10T03:52:32;4.33;;;4.03;;
7527;SDS011;3805;49.006;8.514;2023-05-10T03:55:20;9.43;;;3.80;;
7527;SDS011;3805;49.006;8.514;2023-05-10T03:58:10;4.37;;;4.07;;
7527;SDS011;3805;49.006;8.514;2023-05-10T04:00:59;4.70;;;4.13;;
7527;SDS011;3805;49.006;8.514;2023-05-10T04:03:47;4.83;;;3.70;;
7527;SDS011;3805;49.006;8.514;2023-05-10T04:06:37;6.03;;;3.93;;
7527;SDS011;3805;49.006;8.514;2023-05-10T04:09:26;4.80;;;4.00;;
7527;SDS011;3805;49.006;8.514;2023-05-10T04:12:14;4.20;;;3.90;;
7527;SDS011;3805;49.006;8.514;2023-05-10T04:15:03;4.10;;;3.80;;
7527;SDS011;3805;49.006;8.514;2023-05-10T04:17:53;3.90;;;3.60;;
7527;SDS011;3805;49.006;8.514;2023-05-10T04:20:42;3.53;;;3.33;;
7527;SDS011;3805;49.006;8.514;2023-05-10T04:23:31;3.40;;;3.10;;
7527;SDS011;3805;49.006;8.514;2023-05-10T04:26:20;4.07;;;3.13;;
7527;SDS011;3805;49.006;8.514;2023-05-10T04:29:09;3.73;;;3.43;;
7527;SDS011;3805;49.006;8.514;2023-05-10T04:31:57;3.87;;;3.57;;
7527;SDS011;3805;49.006;8.514;2023-05-10T04:34:45;3.60;;;3.30;;
7527;SDS011;3805;49.006;8.514;2023-05-10T04:37:34;3.00;;;2.77;;
7527;SDS011;3805;49.006;8.514;2023-05-10T04:40:24;3.87;;;3.47;;
7527;SDS011;3805;49.006;8.514;2023-05-10T04:43:14;3.47;;;3.17;;
7527;SDS011;3805;49.006;8.514;2023-05-10T04:46:02;3.60;;;3.40;;
7527;SDS011;3805;49.006;8.514;2023-05-10T04:48:51;21.87;;;4.07;;
7527;SDS011;3805;49.006;8.514;2023-05-10T04:51:39;3.30;;;3.07;;
7527;SDS011;3805;49.006;8.514;2023-05-10T04:54:28;3.50;;;3.30;;
7527;SDS011;3805;49.006;8.514;2023-05-10T04:57:18;3.63;;;3.33;;
7527;SDS011;3805;49.006;8.514;2023-05-10T05:00:06;6.43;;;3.40;;
7527;SDS011;3805;49.006;8.514;2023-05-10T05:02:56;4.50;;;3.47;;
7527;SDS011;3805;49.006;8.514;2023-05-10T05:05:44;3.43;;;3.23;;
7527;SDS011;3805;49.006;8.514;2023-05-10T05:08:33;4.20;;;3.90;;
7527;SDS011;3805;49.006;8.514;2023-05-10T05:11:21;3.87;;;3.33;;
7527;SDS011;3805;49.006;8.514;2023-05-10T05:14:11;3.77;;;2.97;;
7527;SDS011;3805;49.006;8.514;2023-05-10T05:17:01;4.50;;;3.80;;
7527;SDS011;3805;49.006;8.514;2023-05-10T05:19:50;4.27;;;2.90;;
7527;SDS011;3805;49.006;8.514;2023-05-10T05:22:39;3.90;;;3.70;;
7527;SDS011;3805;49.006;8.514;2023-05-10T05:25:27;4.40;;;4.10;;
7527;SDS011;3805;49.006;8.514;2023-05-10T05:28:16;3.73;;;3.50;;
7527;SDS011;3805;49.006;8.514;2023-05-10T05:31:06;4.00;;;3.70;;
7527;SDS011;3805;49.006;8.514;2023-05-10T05:33:55;4.20;;;3.80;;
7527;SDS011;3805;49.006;8.514;2023-05-10T05:36:44;4.27;;;3.93;;
7527;SDS011;3805;49.006;8.514;2023-05-10T05:39:32;3.60;;;3.40;;
7527;SDS011;3805;49.006;8.514;2023-05-10T05:42:21;5.57;;;3.90;;
7527;SDS011;3805;49.006;8.514;2023-05-10T05:45:09;8.13;;;3.93;;
7527;SDS011;3805;49.006;8.514;2023-05-10T05:48:01;3.83;;;3.53;;
7527;SDS011;3805;49.006;8.514;2023-05-10T05:50:53;5.27;;;3.80;;
7527;SDS011;3805;49.006;8.514;2023-05-10T05:53:42;4.83;;;4.23;;
7527;SDS011;3805;49.006;8.514;2023-05-10T05:56:31;4.10;;;3.70;;
7527;SDS011;3805;49.006;8.514;2023-05-10T05:59:19;4.03;;;3.53;;
7527;SDS011;3805;49.006;8.514;2023-05-10T06:02:08;4.10;;;3.70;;
7527;SDS011;3805;49.006;8.514;2023-05-10T06:04:58;3.60;;;3.40;;
7527;SDS011;3805;49.006;8.514;2023-05-10T06:07:46;2.90;;;2.57;;
7527;SDS011;3805;49.006;8.514;2023-05-10T06:10:35;3.70;;;3.40;;
7527;SDS011;3805;49.006;8.514;2023-05-10T06:13:23;2.93;;;2.73;;
7527;SDS011;3805;49.006;8.514;2023-05-10T06:16:15;3.20;;;2.90;;
7527;SDS011;3805;49.006;8.514;2023-05-10T06:19:04;3.30;;;3.00;;
7527;SDS011;3805;49.006;8.514;2023-05-10T06:21:54;3.50;;;3.07;;
7527;SDS011;3805;49.006;8.514;2023-05-10T06:24:43;3.50;;;3.20;;
7527;SDS011;3805;49.006;8.514;2023-05-10T06:27:31;3.43;;;3.23;;
7527;SDS011;3805;49.006;8.514;2023-05-10T06:30:20;5.20;;;3.70;;
7527;SDS011;3805;49.006;8.514;2023-05-10T06:33:10;4.37;;;3.97;;
7527;SDS011;3805;49.006;8.514;2023-05-10T06:35:58;4.73;;;4.33;;
7527;SDS011;3805;49.006;8.514;2023-05-10T06:38:48;3.80;;;3.60;;
7527;SDS011;3805;49.006;8.514;2023-05-10T06:41:38;4.50;;;4.20;;
7527;SDS011;3805;49.006;8.514;2023-05-10T06:44:26;4.77;;;3.67;;
7527;SDS011;3805;49.006;8.514;2023-05-10T06:47:15;3.77;;;3.57;;
7527;SDS011;3805;49.006;8.514;2023-05-10T06:50:04;4.03;;;3.20;;
7527;SDS011;3805;49.006;8.514;2023-05-10T06:52:53;3.63;;;3.10;;
7527;SDS011;3805;49.006;8.514;2023-05-10T06:55:43;3.13;;;2.93;;
7527;SDS011;3805;49.006;8.514;2023-05-10T06:58:32;3.47;;;3.17;;
7527;SDS011;3805;49.006;8.514;2023-05-10T07:01:21;2.80;;;2.60;;
7527;SDS011;3805;49.006;8.514;2023-05-10T07:04:10;3.30;;;3.07;;
7527;SDS011;3805;49.006;8.514;2023-05-10T07:06:58;3.70;;;2.30;;
7527;SDS011;3805;49.006;8.514;2023-05-10T07:09:47;3.47;;;2.33;;
7527;SDS011;3805;49.006;8.514;2023-05-10T07:12:38;2.70;;;2.50;;
7527;SDS011;3805;49.006;8.514;2023-05-10T07:15:26;2.97;;;2.47;;
7527;SDS011;3805;49.006;8.514;2023-05-10T07:18:15;4.03;;;2.80;;
7527;SDS011;3805;49.006;8.514;2023-05-10T07:21:04;4.33;;;2.80;;
7527;SDS011;3805;49.006;8.514;2023-05-10T07:23:52;5.37;;;2.70;;
7527;SDS011;3805;49.006;8.514;2023-05-10T07:26:41;3.03;;;2.10;;
7527;SDS011;3805;49.006;8.514;2023-05-10T07:29:31;3.40;;;2.27;;
7527;SDS011;3805;49.006;8.514;2023-05-10T07:32:19;2.63;;;2.37;;
7527;SDS011;3805;49.006;8.514;2023-05-10T07:35:08;2.40;;;2.20;;
7527;SDS011;3805;49.006;8.514;2023-05-10T07:37:57;2.50;;;1.97;;
7527;SDS011;3805;49.006;8.514;2023-05-10T07:40:45;2.10;;;2.00;;
7527;SDS011;3805;49.006;8.514;2023-05-10T07:43:34;1.87;;;1.77;;
7527;SDS011;3805;49.006;8.514;2023-05-10T07:46:24;2.10;;;1.90;;
7527;SDS011;3805;49.006;8.514;2023-05-10T07:49:12;2.03;;;1.93;;
7527;SDS011;3805;49.006;8.514;2023-05-10T07:52:02;2.30;;;2.00;;
7527;SDS011;3805;49.006;8.514;2023-05-10T07:54:51;2.20;;;2.10;;
7527;SDS011;3805;49.006;8.514;2023-05-10T07:57:41;1.93;;;1.50;;
7527;SDS011;3805;49.006;8.514;2023-05-10T08:00:30;2.47;;;1.60;;
7527;SDS011;3805;49.006;8.514;2023-05-10T08:03:20;1.90;;;1.80;;
7527;SDS011;3805;49.006;8.514;2023-05-10T08:06:09;1.60;;;1.50;;
7527;SDS011;3805;49.006;8.514;2023-05-10T08:08:57;1.50;;;1.40;;
7527;SDS011;3805;49.006;8.514;2023-05-10T08:11:46;1.83;;;1.50;;
7527;SDS011;3805;49.006;8.514;2023-05-10T08:14:38;2.93;;;1.73;;
7527;SDS011;3805;49.006;8.514;2023-05-10T08:17:26;1.60;;;1.50;;
7527;SDS011;3805;49.006;8.514;2023-05-10T08:20:16;2.00;;;1.70;;
7527;SDS011;3805;49.006;8.514;2023-05-10T08:23:05;2.93;;;1.63;;
7527;SDS011;3805;49.006;8.514;2023-05-10T08:25:54;2.10;;;1.90;;
7527;SDS011;3805;49.006;8.514;2023-05-10T08:28:43;1.67;;;1.57;;
7527;SDS011;3805;49.006;8.514;2023-05-10T08:31:31;1.77;;;1.63;;
7527;SDS011;3805;49.006;8.514;2023-05-10T08:34:20;2.03;;;1.60;;
7527;SDS011;3805;49.006;8.514;2023-05-10T08:37:10;1.70;;;1.60;;
7527;SDS011;3805;49.006;8.514;2023-05-10T08:40:00;1.63;;;1.53;;
7527;SDS011;3805;49.006;8.514;2023-05-10T08:42:51;1.80;;;1.70;;
7527;SDS011;3805;49.006;8.514;2023-05-10T08:45:43;2.50;;;1.30;;
7527;SDS011;3805;49.006;8.514;2023-05-10T08:48:34;1.73;;;1.43;;
7527;SDS011;3805;49.006;8.514;2023-05-10T08:51:23;2.43;;;1.70;;
7527;SDS011;3805;49.006;8.514;2023-05-10T08:54:15;1.90;;;1.40;;
7527;SDS011;3805;49.006;8.514;2023-05-10T08:57:03;2.37;;;1.50;;
7527;SDS011;3805;49.006;8.514;2023-05-10T08:59:52;2.53;;;1.60;;
7527;SDS011;3805;49.006;8.514;2023-05-10T09:02:41;2.27;;;1.40;;
7527;SDS011;3805;49.006;8.514;2023-05-10T09:05:30;2.33;;;1.30;;
7527;SDS011;3805;49.006;8.514;2023-05-10T09:08:18;5.03;;;2.23;;
7527;SDS011;3805;49.006;8.514;2023-05-10T09:11:09;1.70;;;1.60;;
7527;SDS011;3805;49.006;8.514;2023-05-10T09:13:59;1.70;;;1.60;;
7527;SDS011;3805;49.006;8.514;2023-05-10T09:16:48;1.73;;;1.43;;
7527;SDS011;3805;49.006;8.514;2023-05-10T09:19:37;2.13;;;1.40;;
7527;SDS011;3805;49.006;8.514;2023-05-10T09:22:26;1.77;;;1.20;;
7527;SDS011;3805;49.006;8.514;2023-05-10T09:25:15;1.83;;;1.73;;
7527;SDS011;3805;49.006;8.514;2023-05-10T09:28:07;1.50;;;1.40;;
7527;SDS011;3805;49.006;8.514;2023-05-10T09:30:56;1.67;;;1.47;;
7527;SDS011;3805;49.006;8.514;2023-05-10T09:33:45;1.60;;;1.50;;
7527;SDS011;3805;49.006;8.514;2023-05-10T09:36:34;2.30;;;1.40;;
7527;SDS011;3805;49.006;8.514;2023-05-10T09:39:30;2.27;;;2.00;;
7527;SDS011;3805;49.006;8.514;2023-05-10T09:42:19;2.10;;;1.53;;
7527;SDS011;3805;49.006;8.514;2023-05-10T09:45:09;1.70;;;1.60;;
7527;SDS011;3805;49.006;8.514;2023-05-10T09:47:58;1.60;;;1.50;;
7527;SDS011;3805;49.006;8.514;2023-05-10T09:50:48;1.70;;;1.60;;
7527;SDS011;3805;49.006;8.514;2023-05-10T09:53:45;1.80;;;1.40;;
7527;SDS011;3805;49.006;8.514;2023-05-10T09:56:33;2.60;;;1.83;;
7527;SDS011;3805;49.006;8.514;2023-05-10T09:59:24;2.00;;;1.80;;
7527;SDS011;3805;49.006;8.514;2023-05-10T10:02:14;1.60;;;1.50;;
7527;SDS011;3805;49.006;8.514;2023-05-10T10:05:03;1.43;;;1.33;;
7527;SDS011;3805;49.006;8.514;2023-05-10T10:07:54;2.00;;;1.80;;
7527;SDS011;3805;49.006;8.514;2023-05-10T10:10:43;2.40;;;1.67;;
7527;SDS011;3805;49.006;8.514;2023-05-10T10:13:33;2.23;;;1.90;;
7527;SDS011;3805;49.006;8.514;2023-05-10T10:16:21;4.83;;;2.37;;
7527;SDS011;3805;49.006;8.514;2023-05-10T10:19:12;1.93;;;1.67;;
7527;SDS011;3805;49.006;8.514;2023-05-10T10:22:00;4.00;;;1.80;;
7527;SDS011;3805;49.006;8.514;2023-05-10T10:24:50;2.43;;;2.07;;
7527;SDS011;3805;49.006;8.514;2023-05-10T10:27:41;2.20;;;1.70;;
7527;SDS011;3805;49.006;8.514;2023-05-10T10:30:35;3.83;;;1.80;;
7527;SDS011;3805;49.006;8.514;2023-05-10T10:33:29;4.03;;;1.93;;
7527;SDS011;3805;49.006;8.514;2023-05-10T10:36:23;1.77;;;1.67;;
7527;SDS011;3805;49.006;8.514;2023-05-10T10:39:14;3.90;;;1.70;;
7527;SDS011;3805;49.006;8.514;2023-05-10T10:42:03;1.87;;;1.53;;
7527;SDS011;3805;49.006;8.514;2023-05-10T10:44:55;3.70;;;2.27;;
7527;SDS011;3805;49.006;8.514;2023-05-10T10:51:08;4.97;;;2.17;;
7527;SDS011;3805;49.006;8.514;2023-05-10T10:54:06;4.20;;;1.90;;
7527;SDS011;3805;49.006;8.514;2023-05-10T10:57:13;2.30;;;2.10;;
7527;SDS011;3805;49.006;8.514;2023-05-10T11:00:21;3.50;;;2.07;;
7527;SDS011;3805;49.006;8.514;2023-05-10T11:03:14;6.80;;;2.30;;
7527;SDS011;3805;49.006;8.514;2023-05-10T11:06:05;10.90;;;2.90;;
7527;SDS011;3805;49.006;8.514;2023-05-10T11:08:54;3.90;;;2.40;;
7527;SDS011;3805;49.006;8.514;2023-05-10T11:11:52;2.40;;;2.20;;
7527;SDS011;3805;49.006;8.514;2023-05-10T11:14:42;4.60;;;2.63;;
7527;SDS011;3805;49.006;8.514;2023-05-10T11:17:31;2.70;;;2.50;;
7527;SDS011;3805;49.006;8.514;2023-05-10T11:20:19;3.17;;;2.97;;
7527;SDS011;3805;49.006;8.514;2023-05-10T11:23:12;2.70;;;2.50;;
7527;SDS011;3805;49.006;8.514;2023-05-10T11:26:02;2.77;;;2.33;;
7527;SDS011;3805;49.006;8.514;2023-05-10T11:28:54;5.50;;;2.00;;
7527;SDS011;3805;49.006;8.514;2023-05-10T11:31:47;2.20;;;2.00;;
7527;SDS011;3805;49.006;8.514;2023-05-10T11:34:36;2.40;;;2.00;;
7527;SDS011;3805;49.006;8.514;2023-05-10T11:37:28;4.60;;;1.90;;
7527;SDS011;3805;49.006;8.514;2023-05-10T11:40:21;3.00;;;1.90;;
7527;SDS011;3805;49.006;8.514;2023-05-10T11:43:11;2.37;;;2.17;;
7527;SDS011;3805;49.006;8.514;2023-05-10T11:46:01;2.67;;;2.10;;
7527;SDS011;3805;49.006;8.514;2023-05-10T11:48:50;2.30;;;2.10;;
7527;SDS011;3805;49.006;8.514;2023-05-10T11:51:40;2.23;;;2.03;;
7527;SDS011;3805;49.006;8.514;2023-05-10T11:54:30;2.90;;;2.00;;
7527;SDS011;3805;49.006;8.514;2023-05-10T11:57:19;2.50;;;2.10;;
7527;SDS011;3805;49.006;8.514;2023-05-10T12:00:08;4.57;;;2.07;;
7527;SDS011;3805;49.006;8.514;2023-05-10T12:03:02;2.70;;;1.93;;
7527;SDS011;3805;49.006;8.514;2023-05-10T12:05:51;2.00;;;1.90;;
7527;SDS011;3805;49.006;8.514;2023-05-10T12:08:43;3.40;;;2.17;;
7527;SDS011;3805;49.006;8.514;2023-05-10T12:11:35;1.70;;;1.60;;
7527;SDS011;3805;49.006;8.514;2023-05-10T12:14:28;2.27;;;1.53;;
7527;SDS011;3805;49.006;8.514;2023-05-10T12:17:20;1.87;;;1.77;;
7527;SDS011;3805;49.006;8.514;2023-05-10T12:20:24;3.60;;;1.70;;
7527;SDS011;3805;49.006;8.514;2023-05-10T12:23:15;1.30;;;1.20;;
7527;SDS011;3805;49.006;8.514;2023-05-10T12:26:04;3.10;;;1.67;;
7527;SDS011;3805;49.006;8.514;2023-05-10T12:28:52;2.57;;;1.47;;
7527;SDS011;3805;49.006;8.514;2023-05-10T12:31:54;3.60;;;1.40;;
7527;SDS011;3805;49.006;8.514;2023-05-10T12:34:43;4.60;;;1.53;;
7527;SDS011;3805;49.006;8.514;2023-05-10T12:37:36;2.10;;;1.20;;
7527;SDS011;3805;49.006;8.514;2023-05-10T12:40:26;2.67;;;1.80;;
7527;SDS011;3805;49.006;8.514;2023-05-10T12:43:14;1.80;;;1.60;;
7527;SDS011;3805;49.006;8.514;2023-05-10T12:46:06;2.50;;;2.27;;
7527;SDS011;3805;49.006;8.514;2023-05-10T12:48:55;3.07;;;2.03;;
7527;SDS011;3805;49.006;8.514;2023-05-10T12:51:55;2.80;;;1.83;;
7527;SDS011;3805;49.006;8.514;2023-05-10T12:54:45;2.87;;;1.70;;
7527;SDS011;3805;49.006;8.514;2023-05-10T12:57:33;1.63;;;1.50;;
7527;SDS011;3805;49.006;8.514;2023-05-10T13:00:22;2.80;;;1.50;;
7527;SDS011;3805;49.006;8.514;2023-05-10T13:03:11;1.60;;;1.50;;
7527;SDS011;3805;49.006;8.514;2023-05-10T13:05:59;1.93;;;1.30;;
7527;SDS011;3805;49.006;8.514;2023-05-10T13:08:48;2.00;;;1.60;;
7527;SDS011;3805;49.006;8.514;2023-05-10T13:11:37;4.30;;;1.70;;
7527;SDS011;3805;49.006;8.514;2023-05-10T13:14:26;2.70;;;1.70;;
7527;SDS011;3805;49.006;8.514;2023-05-10T13:17:14;3.87;;;2.03;;
7527;SDS011;3805;49.006;8.514;2023-05-10T13:20:03;1.70;;;1.60;;
7527;SDS011;3805;49.006;8.514;2023-05-10T13:22:53;2.13;;;2.00;;
7527;SDS011;3805;49.006;8.514;2023-05-10T13:25:41;2.13;;;1.77;;
7527;SDS011;3805;49.006;8.514;2023-05-10T13:28:31;2.37;;;2.17;;
7527;SDS011;3805;49.006;8.514;2023-05-10T13:31:19;1.80;;;1.70;;
7527;SDS011;3805;49.006;8.514;2023-05-10T13:34:08;1.80;;;1.70;;
7527;SDS011;3805;49.006;8.514;2023-05-10T13:36:57;2.43;;;2.00;;
7527;SDS011;3805;49.006;8.514;2023-05-10T13:39:45;3.97;;;1.43;;
7527;SDS011;3805;49.006;8.514;2023-05-10T13:42:34;1.60;;;1.40;;
7527;SDS011;3805;49.006;8.514;2023-05-10T13:45:24;1.60;;;1.40;;
7527;SDS011;3805;49.006;8.514;2023-05-10T13:48:12;1.23;;;1.10;;
7527;SDS011;3805;49.006;8.514;2023-05-10T13:51:01;1.30;;;1.20;;
7527;SDS011;3805;49.006;8.514;2023-05-10T13:53:50;4.70;;;1.47;;
7527;SDS011;3805;49.006;8.514;2023-05-10T13:56:39;1.30;;;1.20;;
7527;SDS011;3805;49.006;8.514;2023-05-10T13:59:28;2.13;;;1.30;;
7527;SDS011;3805;49.006;8.514;2023-05-10T14:02:19;1.50;;;1.40;;
7527;SDS011;3805;49.006;8.514;2023-05-10T14:05:08;2.03;;;1.57;;
7527;SDS011;3805;49.006;8.514;2023-05-10T14:07:57;1.93;;;1.40;;
7527;SDS011;3805;49.006;8.514;2023-05-10T14:10:45;1.57;;;1.47;;
7527;SDS011;3805;49.006;8.514;2023-05-10T14:13:34;1.73;;;1.50;;
7527;SDS011;3805;49.006;8.514;2023-05-10T14:16:22;1.53;;;1.30;;
7527;SDS011;3805;49.006;8.514;2023-05-10T14:19:12;2.00;;;1.37;;
7527;SDS011;3805;49.006;8.514;2023-05-10T14:22:01;3.10;;;1.40;;
7527;SDS011;3805;49.006;8.514;2023-05-10T14:24:49;2.50;;;1.50;;
7527;SDS011;3805;49.006;8.514;2023-05-10T14:27:38;1.50;;;1.37;;
7527;SDS011;3805;49.006;8.514;2023-05-10T14:30:26;1.37;;;1.23;;
7527;SDS011;3805;49.006;8.514;2023-05-10T14:33:16;1.60;;;1.50;;
7527;SDS011;3805;49.006;8.514;2023-05-10T14:36:06;1.50;;;1.40;;
7527;SDS011;3805;49.006;8.514;2023-05-10T14:38:55;1.70;;;1.60;;
7527;SDS011;3805;49.006;8.514;2023-05-10T14:41:44;1.70;;;1.60;;
7527;SDS011;3805;49.006;8.514;2023-05-10T14:44:34;1.20;;;1.10;;
7527;SDS011;3805;49.006;8.514;2023-05-10T14:47:22;4.70;;;1.90;;
7527;SDS011;3805;49.006;8.514;2023-05-10T14:50:11;2.17;;;1.97;;
7527;SDS011;3805;49.006;8.514;2023-05-10T14:53:20;4.10;;;1.40;;
7527;SDS011;3805;49.006;8.514;2023-05-10T14:56:09;1.70;;;1.43;;
7527;SDS011;3805;49.006;8.514;2023-05-10T14:58:58;4.33;;;1.57;;
7527;SDS011;3805;49.006;8.514;2023-05-10T15:01:48;1.93;;;1.23;;
7527;SDS011;3805;49.006;8.514;2023-05-10T15:04:37;2.17;;;1.30;;
7527;SDS011;3805;49.006;8.514;2023-05-10T15:07:27;1.90;;;1.47;;
7527;SDS011;3805;49.006;8.514;2023-05-10T15:10:17;1.73;;;1.40;;
7527;SDS011;3805;49.006;8.514;2023-05-10T15:13:06;2.23;;;1.40;;
7527;SDS011;3805;49.006;8.514;2023-05-10T15:15:54;1.67;;;1.30;;
7527;SDS011;3805;49.006;8.514;2023-05-10T15:18:43;5.63;;;1.37;;
7527;SDS011;3805;49.006;8.514;2023-05-10T15:21:31;1.50;;;1.40;;
7527;SDS011;3805;49.006;8.514;2023-05-10T15:24:25;1.97;;;1.47;;
7527;SDS011;3805;49.006;8.514;2023-05-10T15:27:15;1.87;;;1.20;;
7527;SDS011;3805;49.006;8.514;2023-05-10T15:30:04;1.87;;;1.70;;
7527;SDS011;3805;49.006;8.514;2023-05-10T15:32:54;1.73;;;1.63;;
7527;SDS011;3805;49.006;8.514;2023-05-10T15:35:43;2.30;;;1.50;;
7527;SDS011;3805;49.006;8.514;2023-05-10T15:38:31;1.87;;;1.50;;
7527;SDS011;3805;49.006;8.514;2023-05-10T15:41:20;2.73;;;1.20;;
7527;SDS011;3805;49.006;8.514;2023-05-10T15:44:10;1.40;;;1.30;;
7527;SDS011;3805;49.006;8.514;2023-05-10T15:46:59;1.93;;;1.20;;
7527;SDS011;3805;49.006;8.514;2023-05-10T15:49:47;1.30;;;1.20;;
7527;SDS011;3805;49.006;8.514;2023-05-10T15:52:36;1.57;;;1.27;;
7527;SDS011;3805;49.006;8.514;2023-05-10T15:55:24;2.10;;;1.23;;
7527;SDS011;3805;49.006;8.514;2023-05-10T15:58:13;2.30;;;1.50;;
7527;SDS011;3805;49.006;8.514;2023-05-10T16:01:04;1.63;;;1.20;;
7527;SDS011;3805;49.006;8.514;2023-05-10T16:03:53;2.97;;;1.30;;
7527;SDS011;3805;49.006;8.514;2023-05-10T16:06:41;2.77;;;1.60;;
7527;SDS011;3805;49.006;8.514;2023-05-10T16:09:29;2.87;;;2.67;;
7527;SDS011;3805;49.006;8.514;2023-05-10T16:12:18;1.90;;;1.40;;
7527;SDS011;3805;49.006;8.514;2023-05-10T16:15:07;3.50;;;1.30;;
7527;SDS011;3805;49.006;8.514;2023-05-10T16:17:58;1.83;;;1.30;;
7527;SDS011;3805;49.006;8.514;2023-05-10T16:20:46;1.87;;;1.50;;
7527;SDS011;3805;49.006;8.514;2023-05-10T16:23:35;2.13;;;1.30;;
7527;SDS011;3805;49.006;8.514;2023-05-10T16:26:23;1.40;;;1.30;;
7527;SDS011;3805;49.006;8.514;2023-05-10T16:29:12;1.30;;;1.10;;
7527;SDS011;3805;49.006;8.514;2023-05-10T16:32:01;3.40;;;1.40;;
7527;SDS011;3805;49.006;8.514;2023-05-10T16:34:51;2.00;;;1.77;;
7527;SDS011;3805;49.006;8.514;2023-05-10T16:37:40;1.43;;;1.33;;
7527;SDS011;3805;49.006;8.514;2023-05-10T16:40:28;1.27;;;1.03;;
7527;SDS011;3805;49.006;8.514;2023-05-10T16:43:17;1.53;;;1.10;;
7527;SDS011;3805;49.006;8.514;2023-05-10T16:46:08;1.80;;;1.47;;
7527;SDS011;3805;49.006;8.514;2023-05-10T16:48:57;2.13;;;1.17;;
7527;SDS011;3805;49.006;8.514;2023-05-10T16:51:48;1.37;;;1.00;;
7527;SDS011;3805;49.006;8.514;2023-05-10T16:54:36;1.43;;;1.33;;
7527;SDS011;3805;49.006;8.514;2023-05-10T16:57:25;1.40;;;1.10;;
7527;SDS011;3805;49.006;8.514;2023-05-10T17:00:14;2.10;;;1.10;;
7527;SDS011;3805;49.006;8.514;2023-05-10T17:03:03;1.30;;;1.20;;
7527;SDS011;3805;49.006;8.514;2023-05-10T17:05:52;1.30;;;1.20;;
7527;SDS011;3805;49.006;8.514;2023-05-10T17:08:42;1.30;;;1.20;;
7527;SDS011;3805;49.006;8.514;2023-05-10T17:11:31;1.20;;;1.10;;
7527;SDS011;3805;49.006;8.514;2023-05-10T17:14:20;1.30;;;1.20;;
7527;SDS011;3805;49.006;8.514;2023-05-10T17:17:08;1.13;;;0.90;;
7527;SDS011;3805;49.006;8.514;2023-05-10T17:19:57;1.20;;;1.10;;
7527;SDS011;3805;49.006;8.514;2023-05-10T17:22:45;1.20;;;0.90;;
7527;SDS011;3805;49.006;8.514;2023-05-10T17:25:35;0.97;;;0.80;;
7527;SDS011;3805;49.006;8.514;2023-05-10T17:28:24;1.10;;;0.97;;
7527;SDS011;3805;49.006;8.514;2023-05-10T17:31:12;1.87;;;0.97;;
7527;SDS011;3805;49.006;8.514;2023-05-10T17:34:01;1.73;;;0.90;;
7527;SDS011;3805;49.006;8.514;2023-05-10T17:36:51;2.47;;;1.00;;
7527;SDS011;3805;49.006;8.514;2023-05-10T17:39:40;1.53;;;1.00;;